createdAt,value
2023-04-27T00:01:54.035Z,99272.19
2023-04-27T00:04:21.289Z,99270.72
2023-04-27T00:06:48.472Z,99274.38
2023-04-27T00:09:15.718Z,99263.44
2023-04-27T00:11:42.723Z,99275.28
2023-04-27T00:14:09.556Z,99271.91
2023-04-27T00:16:36.316Z,99265.72
2023-04-27T00:19:03.506Z,99267.69
2023-04-27T00:21:30.308Z,99267.28
2023-04-27T00:23:57.003Z,99267.19
2023-04-27T00:26:23.953Z,99264.59
2023-04-27T00:28:50.672Z,99272.19
2023-04-27T00:31:17.493Z,99263.41
2023-04-27T00:33:44.348Z,99267.47
2023-04-27T00:36:11.297Z,99260.47
2023-04-27T00:38:38.121Z,99265.72
2023-04-27T00:41:06.902Z,99265.31
2023-04-27T00:43:42.410Z,99267.28
2023-04-27T00:46:09.613Z,99260.09
2023-04-27T00:48:37.105Z,99263.97
2023-04-27T00:51:04.221Z,99263.22
2023-04-27T00:53:32.298Z,99258.44
2023-04-27T00:55:59.434Z,99259.25
2023-04-27T00:58:26.812Z,99260.72
2023-04-27T01:00:53.717Z,99253.34
2023-04-27T01:03:20.596Z,99258.66
2023-04-27T01:05:47.384Z,99264.59
2023-04-27T01:08:14.194Z,99257.19
2023-04-27T01:10:41.553Z,99265.94
2023-04-27T01:13:08.427Z,99258.44
2023-04-27T01:15:35.340Z,99256.47
2023-04-27T01:18:03.016Z,99271.78
2023-04-27T01:20:33.046Z,99268.53
2023-04-27T01:23:00.140Z,99266.13
2023-04-27T01:25:26.969Z,99267.38
2023-04-27T01:27:54.709Z,99266.75
2023-04-27T01:30:23.181Z,99259.09
2023-04-27T01:32:52.868Z,99256.94
2023-04-27T01:35:19.751Z,99263.13
2023-04-27T01:37:46.518Z,99270.50
2023-04-27T01:40:14.043Z,99267.78
2023-04-27T01:42:41.233Z,99265.66
2023-04-27T01:45:09.350Z,99271.50
2023-04-27T01:47:36.285Z,99269.03
2023-04-27T01:50:03.069Z,99266.09
2023-04-27T01:52:29.744Z,99274.03
2023-04-27T01:54:57.122Z,99268.00
2023-04-27T01:57:24.058Z,99276.22
2023-04-27T01:59:50.758Z,99271.81
2023-04-27T02:02:17.543Z,99280.41
2023-04-27T02:04:45.541Z,99280.25
2023-04-27T02:07:12.363Z,99292.88
2023-04-27T02:09:39.132Z,99289.63
2023-04-27T02:12:06.481Z,99295.78
2023-04-27T02:14:33.499Z,99298.19
2023-04-27T02:17:00.373Z,99301.44
2023-04-27T02:19:27.620Z,99309.53
2023-04-27T02:21:54.297Z,99305.28
2023-04-27T02:24:21.487Z,99304.38
2023-04-27T02:26:48.229Z,99295.63
2023-04-27T02:29:15.578Z,99306.66
2023-04-27T02:31:42.819Z,99311.34
2023-04-27T02:34:09.583Z,99311.56
2023-04-27T02:36:36.311Z,99308.56
2023-04-27T02:39:03.314Z,99313.22
2023-04-27T02:41:33.364Z,99317.09
2023-04-27T02:44:00.131Z,99318.97
2023-04-27T02:46:27.702Z,99326.56
2023-04-27T02:48:55.728Z,99315.63
2023-04-27T02:51:22.712Z,99322.94
2023-04-27T02:53:49.481Z,99318.75
2023-04-27T02:56:16.136Z,99318.44
2023-04-27T02:58:43.422Z,99321.25
2023-04-27T03:01:10.195Z,99323.97
2023-04-27T03:03:37.297Z,99317.81
2023-04-27T03:06:04.261Z,99322.41
2023-04-27T03:08:31.002Z,99328.13
2023-04-27T03:10:58.148Z,99328.44
2023-04-27T03:13:24.941Z,99328.00
2023-04-27T03:15:51.743Z,99340.13
2023-04-27T03:18:18.445Z,99343.41
2023-04-27T03:20:45.195Z,99344.25
2023-04-27T03:23:12.517Z,99333.97
2023-04-27T03:25:39.239Z,99327.44
2023-04-27T03:28:05.907Z,99334.44
2023-04-27T03:30:32.857Z,99339.47
2023-04-27T03:32:59.723Z,99329.72
2023-04-27T03:35:26.970Z,99333.78
2023-04-27T03:37:53.812Z,99340.28
2023-04-27T03:40:20.932Z,99344.38
2023-04-27T03:42:48.060Z,99351.09
2023-04-27T03:45:16.824Z,99339.09
2023-04-27T03:47:43.892Z,99342.22
2023-04-27T03:50:10.816Z,99335.25
2023-04-27T03:52:37.813Z,99327.69
2023-04-27T03:55:05.927Z,99329.44
2023-04-27T03:57:32.854Z,99327.69
2023-04-27T04:00:02.053Z,99323.56
2023-04-27T04:02:29.066Z,99329.75
2023-04-27T04:04:58.291Z,99327.81
2023-04-27T04:07:25.322Z,99338.94
2023-04-27T04:09:53.233Z,99340.22
2023-04-27T04:12:20.137Z,99336.69
2023-04-27T04:14:49.186Z,99334.22
2023-04-27T04:17:16.170Z,99326.66
2023-04-27T04:19:44.440Z,99329.38
2023-04-27T04:22:12.758Z,99317.00
2023-04-27T04:24:40.660Z,99324.41
2023-04-27T04:27:07.649Z,99319.03
2023-04-27T04:29:34.483Z,99319.03
2023-04-27T04:32:01.264Z,99326.47
2023-04-27T04:34:32.543Z,99328.84
2023-04-27T04:37:01.671Z,99329.13
2023-04-27T04:39:34.015Z,99335.84
2023-04-27T04:42:02.238Z,99340.03
2023-04-27T04:44:30.085Z,99344.81
2023-04-27T04:46:58.543Z,99336.72
2023-04-27T04:49:27.814Z,99336.06
2023-04-27T04:51:58.373Z,99324.22
2023-04-27T04:54:25.725Z,99335.47
2023-04-27T04:56:52.842Z,99342.16
2023-04-27T04:59:19.758Z,99331.28
2023-04-27T05:01:47.078Z,99347.00
2023-04-27T05:04:14.375Z,99347.97
2023-04-27T05:06:41.456Z,99355.69
2023-04-27T05:09:08.528Z,99344.00
2023-04-27T05:11:35.328Z,99335.06
2023-04-27T05:14:02.302Z,99343.75
2023-04-27T05:16:29.209Z,99355.91
2023-04-27T05:18:56.069Z,99359.22
2023-04-27T05:21:23.094Z,99363.41
2023-04-27T05:23:49.945Z,99372.47
2023-04-27T05:26:19.075Z,99368.22
2023-04-27T05:28:47.356Z,99367.56
2023-04-27T05:31:14.235Z,99372.19
2023-04-27T05:33:41.321Z,99376.19
2023-04-27T05:36:08.636Z,99371.28
2023-04-27T05:38:40.493Z,99381.44
2023-04-27T05:41:09.600Z,99380.19
2023-04-27T05:43:38.917Z,99362.78
2023-04-27T05:46:06.911Z,99369.88
2023-04-27T05:48:34.682Z,99375.69
2023-04-27T05:51:04.369Z,99375.19
2023-04-27T05:53:32.812Z,99391.34
2023-04-27T05:56:02.333Z,99391.88
2023-04-27T05:58:29.311Z,99387.00
2023-04-27T06:00:59.076Z,99387.50
2023-04-27T06:03:26.888Z,99382.50
2023-04-27T06:05:59.290Z,99377.28
2023-04-27T06:08:27.754Z,99386.84
2023-04-27T06:10:54.858Z,99379.56
2023-04-27T06:13:22.835Z,99383.00
2023-04-27T06:15:50.124Z,99382.91
2023-04-27T06:18:17.064Z,99381.59
2023-04-27T06:20:45.075Z,99393.63
2023-04-27T06:23:32.972Z,99398.72
2023-04-27T06:26:30.642Z,99401.53
2023-04-27T06:29:08.233Z,99396.88
2023-04-27T06:31:35.081Z,99395.22
2023-04-27T06:34:02.547Z,99400.44
2023-04-27T06:36:30.400Z,99396.16
2023-04-27T06:38:58.156Z,99400.47
2023-04-27T06:41:26.332Z,99407.03
2023-04-27T06:43:54.321Z,99398.13
2023-04-27T06:46:21.520Z,99395.69
2023-04-27T06:48:49.251Z,99403.53
2023-04-27T06:51:16.538Z,99405.91
2023-04-27T06:53:43.425Z,99400.72
2023-04-27T06:56:12.095Z,99414.25
2023-04-27T06:58:38.892Z,99412.75
2023-04-27T07:01:06.073Z,99397.56
2023-04-27T07:03:36.364Z,99403.78
2023-04-27T07:06:03.602Z,99411.66
2023-04-27T07:08:30.492Z,99415.75
2023-04-27T07:10:57.466Z,99409.00
2023-04-27T07:13:24.436Z,99410.91
2023-04-27T07:16:01.317Z,99416.84
2023-04-27T07:18:31.104Z,99412.25
2023-04-27T07:20:58.477Z,99415.34
2023-04-27T07:23:25.375Z,99420.06
2023-04-27T07:25:53.034Z,99408.25
2023-04-27T07:28:20.196Z,99415.66
2023-04-27T07:30:47.590Z,99412.22
2023-04-27T07:33:15.024Z,99417.03
2023-04-27T07:35:42.450Z,99413.84
2023-04-27T07:38:09.607Z,99409.34
2023-04-27T07:40:37.316Z,99418.13
2023-04-27T07:43:07.281Z,99421.53
2023-04-27T07:45:40.199Z,99411.78
2023-04-27T07:48:07.717Z,99422.09
2023-04-27T07:50:34.998Z,99420.94
2023-04-27T07:53:02.445Z,99423.09
2023-04-27T07:55:30.002Z,99426.31
2023-04-27T07:57:57.948Z,99421.09
2023-04-27T08:00:28.347Z,99423.56
2023-04-27T08:02:55.982Z,99413.25
2023-04-27T08:05:24.262Z,99420.88
2023-04-27T08:07:54.487Z,99422.00
2023-04-27T08:10:22.073Z,99426.31
2023-04-27T08:12:49.146Z,99410.19
2023-04-27T08:15:17.446Z,99415.22
2023-04-27T08:17:44.483Z,99412.06
2023-04-27T08:20:12.948Z,99410.84
2023-04-27T08:22:43.256Z,99410.88
2023-04-27T08:25:10.235Z,99404.09
2023-04-27T08:27:38.577Z,99409.97
2023-04-27T08:30:06.714Z,99406.09
2023-04-27T08:32:34.009Z,99398.84
2023-04-27T08:35:01.160Z,99399.38
2023-04-27T08:37:28.796Z,99393.69
2023-04-27T08:39:56.059Z,99404.97
2023-04-27T08:42:23.552Z,99395.31
2023-04-27T08:44:50.602Z,99387.97
2023-04-27T08:47:20.178Z,99392.06
2023-04-27T08:49:55.542Z,99392.44
2023-04-27T08:52:23.407Z,99394.81
2023-04-27T08:54:50.434Z,99392.47
2023-04-27T08:57:17.941Z,99393.84
2023-04-27T08:59:45.719Z,99397.63
2023-04-27T09:02:22.419Z,99396.06
2023-04-27T09:04:51.196Z,99394.69
2023-04-27T09:07:18.614Z,99396.50
2023-04-27T09:09:46.086Z,99386.75
2023-04-27T09:12:24.269Z,99388.25
2023-04-27T09:15:05.604Z,99393.06
2023-04-27T09:17:34.310Z,99381.09
2023-04-27T09:20:13.722Z,99385.16
2023-04-27T09:22:48.616Z,99385.03
2023-04-27T09:25:29.900Z,99384.59
2023-04-27T09:27:58.516Z,99383.72
2023-04-27T09:30:29.750Z,99396.91
2023-04-27T09:32:58.895Z,99388.13
2023-04-27T09:35:29.816Z,99382.06
2023-04-27T09:37:57.502Z,99379.16
2023-04-27T09:40:33.906Z,99378.97
2023-04-27T09:43:05.323Z,99383.41
2023-04-27T09:45:33.875Z,99374.22
2023-04-27T09:48:02.252Z,99370.69
2023-04-27T09:50:29.272Z,99369.38
2023-04-27T09:52:57.792Z,99374.00
2023-04-27T09:55:27.994Z,99371.72
2023-04-27T09:58:31.613Z,99370.78
2023-04-27T10:01:20.059Z,99368.53
2023-04-27T10:04:25.500Z,99365.69
2023-04-27T10:06:59.754Z,99360.69
2023-04-27T10:09:28.602Z,99364.16
2023-04-27T10:11:56.092Z,99357.00
2023-04-27T10:14:24.574Z,99358.91
2023-04-27T10:16:59.216Z,99354.47
2023-04-27T10:19:27.803Z,99349.84
2023-04-27T10:22:02.668Z,99349.03
2023-04-27T10:24:44.832Z,99354.94
2023-04-27T10:27:15.730Z,99354.75
2023-04-27T10:29:45.342Z,99364.03
2023-04-27T10:32:26.691Z,99351.78
2023-04-27T10:35:04.824Z,99358.25
2023-04-27T10:37:42.638Z,99356.88
2023-04-27T10:40:15.065Z,99356.97
2023-04-27T10:42:42.841Z,99354.47
2023-04-27T10:45:10.455Z,99353.56
2023-04-27T10:47:43.366Z,99353.44
2023-04-27T10:50:13.848Z,99353.91
2023-04-27T10:52:43.044Z,99346.88
2023-04-27T10:55:20.535Z,99349.28
2023-04-27T10:57:51.529Z,99341.84
2023-04-27T11:00:33.078Z,99332.38
2023-04-27T11:03:17.256Z,99329.44
2023-04-27T11:05:46.907Z,99329.53
2023-04-27T11:08:16.259Z,99326.72
2023-04-27T11:10:51.488Z,99328.00
2023-04-27T11:13:25.851Z,99326.03
2023-04-27T11:15:55.115Z,99330.19
2023-04-27T11:18:24.416Z,99325.03
2023-04-27T11:20:53.228Z,99314.47
2023-04-27T11:23:32.698Z,99314.59
2023-04-27T11:26:11.552Z,99315.19
2023-04-27T11:28:39.323Z,99323.28
2023-04-27T11:31:07.487Z,99311.16
2023-04-27T11:33:35.950Z,99319.53
2023-04-27T11:36:03.704Z,99324.41
2023-04-27T11:38:37.579Z,99322.63
2023-04-27T11:41:08.045Z,99318.53
2023-04-27T11:43:37.137Z,99315.31
2023-04-27T11:46:08.780Z,99312.88
2023-04-27T11:48:37.863Z,99313.78
2023-04-27T11:51:06.056Z,99307.22
2023-04-27T11:53:37.917Z,99308.91
2023-04-27T11:56:07.699Z,99307.97
2023-04-27T11:58:36.680Z,99310.03
2023-04-27T12:01:10.715Z,99307.53
2023-04-27T12:03:38.412Z,99310.38
2023-04-27T12:06:21.504Z,99304.63
2023-04-27T12:08:53.054Z,99304.88
2023-04-27T12:11:20.695Z,99297.13
2023-04-27T12:13:48.659Z,99298.25
2023-04-27T12:16:15.820Z,99292.31
2023-04-27T12:18:42.959Z,99284.97
2023-04-27T12:21:10.864Z,99285.34
2023-04-27T12:23:37.727Z,99292.69
2023-04-27T12:26:06.221Z,99288.41
2023-04-27T12:28:33.506Z,99269.88
2023-04-27T12:31:04.252Z,99273.81
2023-04-27T12:33:31.271Z,99274.50
2023-04-27T12:35:58.559Z,99273.13
2023-04-27T12:38:25.370Z,99261.44
2023-04-27T12:40:52.289Z,99268.72
2023-04-27T12:43:21.633Z,99267.53
2023-04-27T12:45:48.934Z,99273.50
2023-04-27T12:48:18.208Z,99272.53
2023-04-27T12:50:45.214Z,99265.53
2023-04-27T12:53:12.789Z,99277.16
2023-04-27T12:55:39.776Z,99267.38
2023-04-27T12:58:08.188Z,99267.84
2023-04-27T13:00:35.018Z,99264.88
2023-04-27T13:03:02.746Z,99270.75
2023-04-27T13:05:31.900Z,99273.94
2023-04-27T13:07:59.498Z,99274.13
2023-04-27T13:10:26.326Z,99268.34
2023-04-27T13:12:54.898Z,99270.22
2023-04-27T13:15:22.149Z,99265.56
2023-04-27T13:17:50.315Z,99261.59
2023-04-27T13:20:19.425Z,99263.09
2023-04-27T13:22:48.320Z,99267.88
2023-04-27T13:25:17.100Z,99269.53
2023-04-27T13:27:44.645Z,99261.78
2023-04-27T13:30:14.291Z,99254.81
2023-04-27T13:32:45.238Z,99251.00
2023-04-27T13:35:17.707Z,99250.97
2023-04-27T13:37:47.210Z,99247.28
2023-04-27T13:40:16.354Z,99244.53
2023-04-27T13:42:45.580Z,99251.09
2023-04-27T13:45:13.822Z,99250.19
2023-04-27T13:47:41.310Z,99255.09
2023-04-27T13:50:12.396Z,99255.78
2023-04-27T13:52:40.711Z,99250.63
2023-04-27T13:55:10.519Z,99252.22
2023-04-27T13:57:38.027Z,99243.25
2023-04-27T14:00:11.749Z,99238.59
2023-04-27T14:02:40.291Z,99236.94
2023-04-27T14:05:08.686Z,99234.28
2023-04-27T14:07:35.960Z,99238.69
2023-04-27T14:10:09.951Z,99239.66
2023-04-27T14:12:40.333Z,99239.00
2023-04-27T14:15:10.551Z,99241.81
2023-04-27T14:17:37.771Z,99234.09
2023-04-27T14:20:07.825Z,99229.47
2023-04-27T14:22:36.608Z,99227.75
2023-04-27T14:25:03.821Z,99221.22
2023-04-27T14:27:30.807Z,99221.03
2023-04-27T14:29:57.708Z,99219.28
2023-04-27T14:32:27.942Z,99215.47
2023-04-27T14:34:58.546Z,99206.03
2023-04-27T14:37:26.555Z,99210.56
2023-04-27T14:39:53.430Z,99213.28
2023-04-27T14:42:25.305Z,99216.97
2023-04-27T14:44:53.609Z,99198.72
2023-04-27T14:47:21.787Z,99201.75
2023-04-27T14:49:54.506Z,99204.16
2023-04-27T14:52:27.942Z,99198.84
2023-04-27T14:54:58.149Z,99201.28
2023-04-27T14:57:26.094Z,99199.97
2023-04-27T14:59:55.516Z,99200.41
2023-04-27T15:02:23.152Z,99195.56
2023-04-27T15:04:51.087Z,99199.00
2023-04-27T15:07:22.352Z,99196.47
2023-04-27T15:09:54.707Z,99206.53
2023-04-27T15:12:21.628Z,99204.31
2023-04-27T15:14:50.241Z,99196.09
2023-04-27T15:17:16.988Z,99201.38
2023-04-27T15:19:43.921Z,99195.03
2023-04-27T15:22:10.761Z,99194.13
2023-04-27T15:24:37.565Z,99199.59
2023-04-27T15:27:04.307Z,99191.84
2023-04-27T15:29:31.202Z,99197.72
2023-04-27T15:31:57.875Z,99196.16
2023-04-27T15:34:24.849Z,99192.13
2023-04-27T15:36:51.657Z,99189.47
2023-04-27T15:39:18.547Z,99200.66
2023-04-27T15:41:45.271Z,99188.69
2023-04-27T15:44:12.323Z,99181.97
2023-04-27T15:46:39.281Z,99191.75
2023-04-27T15:49:06.734Z,99181.16
2023-04-27T15:51:35.998Z,99185.47
2023-04-27T15:54:02.856Z,99170.88
2023-04-27T15:56:30.912Z,99174.91
2023-04-27T15:58:58.276Z,99178.47
2023-04-27T16:01:26.364Z,99172.22
2023-04-27T16:03:53.596Z,99177.53
2023-04-27T16:06:21.055Z,99166.56
2023-04-27T16:08:51.066Z,99166.03
2023-04-27T16:11:17.914Z,99165.38
2023-04-27T16:13:44.855Z,99165.97
2023-04-27T16:16:11.716Z,99157.59
2023-04-27T16:18:39.287Z,99159.63
2023-04-27T16:21:06.483Z,99148.59
2023-04-27T16:23:33.907Z,99154.09
2023-04-27T16:26:01.085Z,99144.78
2023-04-27T16:28:28.364Z,99150.94
2023-04-27T16:30:55.491Z,99149.78
2023-04-27T16:33:22.429Z,99143.50
2023-04-27T16:35:49.742Z,99146.16
2023-04-27T16:38:17.137Z,99150.63
2023-04-27T16:40:45.146Z,99151.13
2023-04-27T16:43:12.248Z,99153.09
2023-04-27T16:45:44.903Z,99147.47
2023-04-27T16:48:12.965Z,99154.09
2023-04-27T16:50:40.374Z,99154.22
2023-04-27T16:53:08.774Z,99153.66
2023-04-27T16:55:36.045Z,99158.00
2023-04-27T16:58:03.355Z,99158.19
2023-04-27T17:00:30.506Z,99157.69
2023-04-27T17:02:57.971Z,99160.25
2023-04-27T17:05:25.287Z,99168.31
2023-04-27T17:07:54.527Z,99171.22
2023-04-27T17:10:21.663Z,99165.44
2023-04-27T17:12:48.468Z,99171.81
2023-04-27T17:15:15.584Z,99159.00
2023-04-27T17:17:42.494Z,99170.25
2023-04-27T17:20:10.538Z,99168.56
2023-04-27T17:22:38.170Z,99168.13
2023-04-27T17:25:07.451Z,99165.44
2023-04-27T17:27:34.401Z,99162.94
2023-04-27T17:30:01.708Z,99173.06
2023-04-27T17:32:29.120Z,99165.91
2023-04-27T17:34:56.020Z,99163.78
2023-04-27T17:37:22.994Z,99162.31
2023-04-27T17:39:52.081Z,99154.34
2023-04-27T17:42:19.758Z,99161.16
2023-04-27T17:44:46.727Z,99166.56
2023-04-27T17:47:13.981Z,99157.66
2023-04-27T17:49:41.340Z,99162.94
2023-04-27T17:52:08.301Z,99163.25
2023-04-27T17:54:35.418Z,99161.00
2023-04-27T17:57:02.338Z,99160.25
2023-04-27T17:59:29.310Z,99166.72
2023-04-27T18:01:56.863Z,99172.00
2023-04-27T18:04:24.693Z,99166.72
2023-04-27T18:06:51.839Z,99158.44
2023-04-27T18:09:18.917Z,99171.84
2023-04-27T18:11:46.019Z,99162.34
2023-04-27T18:14:13.581Z,99165.50
2023-04-27T18:16:40.280Z,99149.25
2023-04-27T18:19:07.493Z,99159.41
2023-04-27T18:21:34.295Z,99163.63
2023-04-27T18:24:02.189Z,99155.13
2023-04-27T18:26:30.824Z,99161.50
2023-04-27T18:28:58.956Z,99165.59
2023-04-27T18:31:26.142Z,99161.50
2023-04-27T18:33:53.072Z,99175.63
2023-04-27T18:36:20.138Z,99176.38
2023-04-27T18:38:48.956Z,99178.81
2023-04-27T18:41:15.935Z,99175.63
2023-04-27T18:43:43.311Z,99170.72
2023-04-27T18:46:10.518Z,99173.78
2023-04-27T18:48:37.979Z,99165.41
2023-04-27T18:51:04.734Z,99176.59
2023-04-27T18:53:31.381Z,99159.91
2023-04-27T18:55:58.172Z,99172.31
2023-04-27T18:58:25.034Z,99179.38
2023-04-27T19:00:51.873Z,99171.47
2023-04-27T19:03:18.761Z,99182.94
2023-04-27T19:05:46.166Z,99177.66
2023-04-27T19:08:13.137Z,99162.00
2023-04-27T19:10:42.552Z,99175.72
2023-04-27T19:13:09.317Z,99173.66
2023-04-27T19:15:36.047Z,99177.38
2023-04-27T19:18:10.686Z,99172.69
2023-04-27T19:20:39.208Z,99177.25
2023-04-27T19:23:06.222Z,99168.94
2023-04-27T19:25:32.999Z,99167.63
2023-04-27T19:28:00.520Z,99159.56
2023-04-27T19:30:27.711Z,99169.03
2023-04-27T19:32:54.630Z,99168.19
2023-04-27T19:35:24.216Z,99160.88
2023-04-27T19:37:51.627Z,99154.94
2023-04-27T19:40:18.730Z,99160.44
2023-04-27T19:42:45.764Z,99154.53
2023-04-27T19:45:13.021Z,99158.25
2023-04-27T19:47:40.102Z,99163.78
2023-04-27T19:50:07.342Z,99160.31
2023-04-27T19:52:34.189Z,99156.84
2023-04-27T19:55:01.026Z,99164.59
2023-04-27T19:57:27.931Z,99161.16
2023-04-27T19:59:54.639Z,99163.78
2023-04-27T20:02:21.811Z,99168.91
2023-04-27T20:04:48.931Z,99178.56
2023-04-27T20:07:16.417Z,99166.00
2023-04-27T20:09:43.239Z,99170.44
2023-04-27T20:12:23.605Z,99167.53
2023-04-27T20:14:50.856Z,99171.50
2023-04-27T20:17:17.785Z,99174.28
2023-04-27T20:19:45.216Z,99168.06
2023-04-27T20:22:13.287Z,99165.97
2023-04-27T20:24:40.028Z,99178.84
2023-04-27T20:27:07.249Z,99182.13
2023-04-27T20:29:34.202Z,99180.63
2023-04-27T20:32:01.650Z,99177.72
2023-04-27T20:34:28.703Z,99177.88
2023-04-27T20:36:55.730Z,99168.63
2023-04-27T20:39:24.352Z,99168.22
2023-04-27T20:41:51.294Z,99170.25
2023-04-27T20:44:18.710Z,99165.13
2023-04-27T20:46:45.549Z,99162.09
2023-04-27T20:49:15.059Z,99165.97
2023-04-27T20:51:44.064Z,99166.53
2023-04-27T20:54:11.531Z,99165.13
2023-04-27T20:56:38.527Z,99172.00
2023-04-27T20:59:07.185Z,99163.75
2023-04-27T21:01:35.092Z,99166.38
2023-04-27T21:04:02.558Z,99155.22
2023-04-27T21:06:29.915Z,99154.88
2023-04-27T21:08:57.806Z,99153.78
2023-04-27T21:11:25.080Z,99155.16
2023-04-27T21:13:53.124Z,99149.31
2023-04-27T21:16:19.987Z,99146.31
2023-04-27T21:18:47.096Z,99142.84
2023-04-27T21:21:13.789Z,99144.66
2023-04-27T21:23:41.128Z,99141.88
2023-04-27T21:26:09.372Z,99135.50
2023-04-27T21:28:36.127Z,99131.16
2023-04-27T21:31:03.542Z,99130.16
2023-04-27T21:33:32.274Z,99124.16
2023-04-27T21:35:59.733Z,99118.66
2023-04-27T21:38:26.538Z,99111.47
2023-04-27T21:40:53.214Z,99116.56
2023-04-27T21:43:19.940Z,99126.00
2023-04-27T21:45:47.076Z,99115.25
2023-04-27T21:48:13.984Z,99103.91
2023-04-27T21:50:40.776Z,99103.03
2023-04-27T21:53:08.172Z,99101.22
2023-04-27T21:55:34.995Z,99110.72
2023-04-27T21:58:01.725Z,99115.38
2023-04-27T22:00:28.606Z,99121.81
2023-04-27T22:02:55.817Z,99113.09
2023-04-27T22:05:22.904Z,99109.97
2023-04-27T22:07:50.590Z,99104.69
2023-04-27T22:10:18.301Z,99108.00
2023-04-27T22:12:47.059Z,99109.97
2023-04-27T22:15:13.977Z,99111.91
2023-04-27T22:17:40.940Z,99109.97
2023-04-27T22:20:14.766Z,99111.47
2023-04-27T22:22:41.520Z,99110.25
2023-04-27T22:25:08.817Z,99119.72
2023-04-27T22:27:44.126Z,99119.63
2023-04-27T22:30:12.827Z,99122.06
2023-04-27T22:32:39.576Z,99120.66
2023-04-27T22:35:18.721Z,99111.16
2023-04-27T22:37:52.443Z,99117.09
2023-04-27T22:40:19.667Z,99119.81
2023-04-27T22:42:47.239Z,99113.53
2023-04-27T22:45:14.242Z,99115.47
2023-04-27T22:47:41.863Z,99110.13
2023-04-27T22:50:09.131Z,99107.72
2023-04-27T22:52:37.502Z,99101.22
2023-04-27T22:55:04.889Z,99094.28
2023-04-27T22:57:32.107Z,99092.47
2023-04-27T22:59:58.857Z,99095.25
2023-04-27T23:02:25.783Z,99093.00
2023-04-27T23:04:52.786Z,99094.38
2023-04-27T23:07:19.508Z,99084.91
2023-04-27T23:09:48.403Z,99094.44
2023-04-27T23:12:15.340Z,99082.84
2023-04-27T23:14:42.692Z,99078.91
2023-04-27T23:17:10.592Z,99072.16
2023-04-27T23:19:37.627Z,99076.63
2023-04-27T23:22:04.765Z,99077.78
2023-04-27T23:24:31.644Z,99059.53
2023-04-27T23:26:58.786Z,99074.94
2023-04-27T23:29:25.911Z,99078.44
2023-04-27T23:31:52.727Z,99069.72
2023-04-27T23:34:19.372Z,99069.06
2023-04-27T23:36:46.068Z,99059.78
2023-04-27T23:39:12.768Z,99049.03
2023-04-27T23:41:39.476Z,99046.34
2023-04-27T23:44:06.249Z,99048.19
2023-04-27T23:46:33.756Z,99044.59
2023-04-27T23:49:00.589Z,99041.03
2023-04-27T23:51:27.592Z,99037.97
2023-04-27T23:53:54.416Z,99038.94
2023-04-27T23:56:21.160Z,99035.31
2023-04-27T23:58:47.822Z,99020.97
